createdAt,value
2019-05-03T00:01:36.273Z,16.85
2019-05-03T00:04:05.733Z,16.52
2019-05-03T00:06:35.214Z,16.50
2019-05-03T00:09:06.745Z,16.33
2019-05-03T00:11:36.133Z,16.32
2019-05-03T00:14:05.551Z,16.20
2019-05-03T00:16:36.884Z,16.33
2019-05-03T00:19:06.227Z,16.32
2019-05-03T00:21:35.613Z,16.06
2019-05-03T00:24:05.010Z,15.78
2019-05-03T00:26:34.441Z,15.59
2019-05-03T00:29:03.774Z,15.70
2019-05-03T00:31:33.151Z,15.90
2019-05-03T00:34:06.750Z,15.48
2019-05-03T00:36:43.820Z,15.35
2019-05-03T00:39:34.856Z,15.38
2019-05-03T00:42:04.279Z,15.44
2019-05-03T00:44:33.620Z,15.46
2019-05-03T00:47:03.066Z,15.68
2019-05-03T00:49:32.408Z,15.38
2019-05-03T00:52:02.323Z,15.33
2019-05-03T00:54:32.373Z,14.99
2019-05-03T00:57:02.701Z,14.78
2019-05-03T00:59:32.663Z,14.84
2019-05-03T01:02:02.777Z,14.76
2019-05-03T01:04:32.622Z,14.68
2019-05-03T01:07:02.319Z,14.53
2019-05-03T01:09:32.031Z,14.56
2019-05-03T01:12:01.936Z,14.68
2019-05-03T01:14:32.054Z,14.62
2019-05-03T01:17:02.593Z,14.65
2019-05-03T01:19:32.837Z,14.46
2019-05-03T01:22:02.171Z,14.31
2019-05-03T01:24:32.285Z,14.24
2019-05-03T01:27:02.075Z,14.23
2019-05-03T01:29:32.297Z,14.20
2019-05-03T01:32:02.360Z,14.26
2019-05-03T01:34:32.571Z,13.94
2019-05-03T01:37:02.735Z,13.75
2019-05-03T01:39:32.188Z,13.89
2019-05-03T01:42:02.690Z,14.02
2019-05-03T01:44:32.709Z,13.97
2019-05-03T01:47:04.700Z,13.89
2019-05-03T01:49:47.598Z,13.98
2019-05-03T01:52:22.401Z,13.92
2019-05-03T01:54:52.223Z,14.04
2019-05-03T01:57:22.101Z,13.87
2019-05-03T01:59:52.050Z,13.88
2019-05-03T02:02:39.387Z,13.92
2019-05-03T02:05:32.036Z,13.51
2019-05-03T02:08:02.135Z,13.67
2019-05-03T02:10:32.278Z,13.57
2019-05-03T02:13:01.798Z,13.65
2019-05-03T02:18:07.085Z,13.52
2019-05-03T02:20:36.535Z,13.38
2019-05-03T02:23:05.994Z,13.40
2019-05-03T02:25:35.633Z,13.29
2019-05-03T02:28:05.042Z,13.45
2019-05-03T02:30:34.500Z,13.58
2019-05-03T02:33:04.380Z,13.36
2019-05-03T02:35:33.964Z,13.52
2019-05-03T02:38:03.800Z,13.48
2019-05-03T02:40:34.015Z,13.48
2019-05-03T02:43:10.361Z,13.48
2019-05-03T02:45:56.687Z,13.50
2019-05-03T02:48:36.221Z,13.60
2019-05-03T02:51:06.602Z,13.40
2019-05-03T02:53:36.021Z,13.27
2019-05-03T02:56:15.234Z,13.07
2019-05-03T02:58:36.774Z,13.17
2019-05-03T03:01:06.768Z,13.20
2019-05-03T03:03:36.623Z,13.19
2019-05-03T03:06:07.011Z,12.94
2019-05-03T03:08:37.245Z,13.13
2019-05-03T03:11:07.652Z,13.09
2019-05-03T03:13:38.331Z,13.03
2019-05-03T03:16:08.680Z,13.10
2019-05-03T03:18:38.563Z,13.19
2019-05-03T03:21:15.677Z,13.22
2019-05-03T03:24:01.437Z,13.02
2019-05-03T03:26:39.262Z,13.19
2019-05-03T03:29:05.736Z,13.09
2019-05-03T03:32:18.116Z,13.19
2019-05-03T03:35:01.757Z,13.30
2019-05-03T03:37:26.651Z,13.24
2019-05-03T03:39:56.295Z,13.00
2019-05-03T03:42:26.008Z,13.08
2019-05-03T03:44:56.281Z,13.04
2019-05-03T03:47:27.384Z,13.11
2019-05-03T03:49:57.261Z,13.23
2019-05-03T03:52:26.898Z,13.36
2019-05-03T03:54:56.458Z,13.14
2019-05-03T03:57:25.995Z,13.42
2019-05-03T03:59:56.249Z,13.26
2019-05-03T04:02:26.637Z,13.37
2019-05-03T04:04:56.379Z,13.55
2019-05-03T04:07:26.350Z,13.71
2019-05-03T04:09:56.446Z,13.81
2019-05-03T04:12:26.903Z,13.85
2019-05-03T04:15:05.505Z,13.95
2019-05-03T04:17:59.353Z,14.04
2019-05-03T04:20:32.752Z,13.91
2019-05-03T04:23:02.149Z,13.99
2019-05-03T04:25:31.538Z,13.66
2019-05-03T04:28:00.942Z,13.61
2019-05-03T04:30:30.612Z,13.63
2019-05-03T04:33:00.141Z,13.25
2019-05-03T04:35:29.706Z,13.38
2019-05-03T04:37:59.564Z,13.36
2019-05-03T04:40:29.324Z,13.35
2019-05-03T04:42:58.792Z,13.46
2019-05-03T04:45:28.417Z,13.75
2019-05-03T04:47:58.092Z,13.66
2019-05-03T04:50:27.759Z,13.69
2019-05-03T04:52:57.415Z,13.64
2019-05-03T04:55:27.073Z,13.60
2019-05-03T04:57:56.679Z,13.77
2019-05-03T05:00:26.181Z,13.91
2019-05-03T05:02:55.701Z,13.94
2019-05-03T05:05:26.209Z,13.79
2019-05-03T05:07:56.151Z,13.93
2019-05-03T05:10:26.239Z,13.75
2019-05-03T05:12:55.825Z,13.82
2019-05-03T05:15:26.503Z,13.75
2019-05-03T05:18:07.759Z,13.99
2019-05-03T05:20:55.999Z,14.40
2019-05-03T05:23:25.462Z,14.91
2019-05-03T05:26:08.016Z,15.01
2019-05-03T05:28:51.547Z,14.69
2019-05-03T05:31:20.904Z,14.14
2019-05-03T05:33:50.309Z,14.30
2019-05-03T05:36:19.670Z,14.32
2019-05-03T05:38:49.071Z,14.40
2019-05-03T05:41:18.450Z,14.86
2019-05-03T05:43:47.856Z,15.26
2019-05-03T05:46:18.298Z,15.47
2019-05-03T05:48:49.830Z,16.15
2019-05-03T05:51:19.217Z,16.69
2019-05-03T05:53:48.628Z,17.08
2019-05-03T05:56:40.127Z,17.84
2019-05-03T05:59:31.766Z,17.60
2019-05-03T06:02:05.296Z,17.53
2019-05-03T06:04:34.957Z,17.33
2019-05-03T06:07:22.306Z,17.15
2019-05-03T06:10:14.752Z,17.19
2019-05-03T06:12:57.796Z,17.06
2019-05-03T06:15:45.784Z,16.72
2019-05-03T06:18:19.688Z,16.79
2019-05-03T06:20:55.981Z,16.84
2019-05-03T06:23:39.089Z,17.18
2019-05-03T06:26:27.349Z,16.76
2019-05-03T06:28:57.370Z,16.88
2019-05-03T06:31:36.472Z,16.53
2019-05-03T06:34:06.015Z,16.50
2019-05-03T06:36:35.660Z,16.69
2019-05-03T06:39:08.308Z,17.00
2019-05-03T06:41:37.502Z,17.40
2019-05-03T06:44:06.902Z,17.97
2019-05-03T06:46:46.663Z,17.96
2019-05-03T06:49:16.066Z,17.57
2019-05-03T06:51:49.677Z,17.45
2019-05-03T06:54:20.770Z,18.23
2019-05-03T06:56:47.892Z,19.18
2019-05-03T06:59:25.967Z,19.96
2019-05-03T07:02:14.863Z,21.18
2019-05-03T07:04:46.755Z,21.81
2019-05-03T07:07:35.454Z,22.70
2019-05-03T07:10:10.551Z,22.87
2019-05-03T07:12:57.441Z,23.47
2019-05-03T07:15:27.031Z,23.61
2019-05-03T07:17:56.846Z,24.36
2019-05-03T07:20:26.276Z,24.38
2019-05-03T07:22:56.042Z,23.18
2019-05-03T07:25:26.350Z,21.84
2019-05-03T07:27:55.876Z,20.99
2019-05-03T07:30:25.379Z,20.32
2019-05-03T07:33:00.380Z,20.16
2019-05-03T07:35:29.741Z,21.00
2019-05-03T07:37:59.110Z,19.67
2019-05-03T07:40:28.516Z,19.42
2019-05-03T07:42:57.947Z,19.89
2019-05-03T07:45:27.342Z,20.84
2019-05-03T07:47:56.709Z,21.33
2019-05-03T07:50:26.164Z,21.73
2019-05-03T07:52:55.926Z,21.57
2019-05-03T07:55:45.692Z,20.35
2019-05-03T07:58:18.422Z,23.37
2019-05-03T08:01:02.582Z,25.99
2019-05-03T08:03:20.505Z,28.99
2019-05-03T08:05:50.514Z,30.54
2019-05-03T08:08:19.919Z,27.24
2019-05-03T08:10:49.389Z,23.87
2019-05-03T08:13:18.920Z,21.90
2019-05-03T08:15:48.296Z,20.97
2019-05-03T08:18:17.986Z,20.35
2019-05-03T08:20:47.337Z,21.62
2019-05-03T08:23:26.834Z,25.41
2019-05-03T08:25:50.769Z,28.36
2019-05-03T08:28:19.028Z,28.07
2019-05-03T08:31:04.788Z,27.78
2019-05-03T08:33:58.402Z,26.92
2019-05-03T08:36:28.038Z,25.28
2019-05-03T08:38:58.298Z,23.63
2019-05-03T08:41:29.847Z,24.40
2019-05-03T08:43:59.213Z,28.21
2019-05-03T08:46:28.631Z,28.62
2019-05-03T08:48:58.029Z,27.13
2019-05-03T08:51:27.418Z,26.27
2019-05-03T08:53:56.771Z,24.82
2019-05-03T08:56:26.190Z,22.28
2019-05-03T08:58:56.937Z,21.86
2019-05-03T09:01:26.279Z,21.40
2019-05-03T09:03:56.084Z,20.94
2019-05-03T09:06:26.092Z,21.51
2019-05-03T09:08:57.217Z,21.85
2019-05-03T09:11:33.603Z,20.78
2019-05-03T09:14:00.465Z,21.12
2019-05-03T09:16:29.824Z,21.54
2019-05-03T09:18:59.288Z,24.39
2019-05-03T09:21:28.690Z,25.25
2019-05-03T09:23:58.091Z,23.72
2019-05-03T09:26:29.546Z,22.56
2019-05-03T09:28:58.582Z,23.56
2019-05-03T09:31:27.939Z,23.43
2019-05-03T09:33:57.461Z,23.95
2019-05-03T09:36:26.821Z,23.57
2019-05-03T09:38:56.225Z,22.63
2019-05-03T09:41:25.859Z,21.75
2019-05-03T09:43:55.679Z,21.35
2019-05-03T09:46:26.531Z,21.45
2019-05-03T09:49:03.570Z,21.89
2019-05-03T09:51:27.310Z,21.79
2019-05-03T09:54:02.184Z,20.99
2019-05-03T09:56:55.846Z,20.24
2019-05-03T09:59:20.256Z,20.02
2019-05-03T10:01:49.724Z,21.10
2019-05-03T10:04:19.276Z,23.15
2019-05-03T10:06:48.615Z,23.59
2019-05-03T10:09:18.130Z,23.67
2019-05-03T10:11:47.571Z,22.72
2019-05-03T10:14:16.997Z,23.59
2019-05-03T10:16:57.298Z,23.63
2019-05-03T10:19:36.999Z,23.29
2019-05-03T10:21:57.900Z,23.07
2019-05-03T10:24:27.386Z,23.86
2019-05-03T10:26:56.983Z,24.56
2019-05-03T10:29:26.483Z,24.40
2019-05-03T10:32:02.835Z,24.87
2019-05-03T10:34:32.247Z,24.35
2019-05-03T10:37:01.631Z,23.96
2019-05-03T10:39:31.128Z,23.77
2019-05-03T10:42:00.529Z,23.28
2019-05-03T10:44:29.975Z,22.74
2019-05-03T10:46:59.426Z,22.61
2019-05-03T10:49:28.879Z,21.92
2019-05-03T10:52:02.337Z,22.11
2019-05-03T10:54:31.730Z,21.57
2019-05-03T10:57:15.928Z,21.68
2019-05-03T10:59:45.484Z,22.08
2019-05-03T11:02:38.964Z,22.13
2019-05-03T11:05:08.698Z,22.58
2019-05-03T11:07:38.433Z,23.17
2019-05-03T11:10:09.069Z,22.54
2019-05-03T11:12:38.555Z,21.94
2019-05-03T11:15:08.654Z,21.81
2019-05-03T11:17:38.049Z,21.60
2019-05-03T11:20:08.119Z,21.83
2019-05-03T11:22:37.495Z,21.22
2019-05-03T11:25:07.033Z,21.92
2019-05-03T11:27:45.296Z,22.08
2019-05-03T11:30:15.811Z,22.54
2019-05-03T11:32:55.612Z,22.42
2019-05-03T11:35:44.751Z,23.38
2019-05-03T11:38:35.002Z,23.29
2019-05-03T11:41:04.943Z,23.42
2019-05-03T11:43:35.743Z,23.64
2019-05-03T11:46:05.197Z,23.61
2019-05-03T11:48:34.999Z,23.42
2019-05-03T11:51:04.521Z,23.48
2019-05-03T11:53:35.600Z,24.13
2019-05-03T11:56:05.609Z,24.28
2019-05-03T11:58:34.997Z,25.29
2019-05-03T12:01:18.861Z,24.78
2019-05-03T12:03:45.328Z,25.07
2019-05-03T12:06:15.726Z,24.90
2019-05-03T12:08:45.292Z,25.07
2019-05-03T12:11:15.262Z,25.05
2019-05-03T12:13:45.645Z,23.85
2019-05-03T12:16:22.187Z,23.75
2019-05-03T12:18:53.313Z,23.78
2019-05-03T12:21:19.270Z,23.64
2019-05-03T12:23:49.397Z,22.41
2019-05-03T12:26:19.970Z,22.23
2019-05-03T12:28:49.882Z,23.06
2019-05-03T12:31:33.358Z,24.10
2019-05-03T12:33:50.397Z,24.59
2019-05-03T12:36:19.986Z,24.69
2019-05-03T12:38:49.623Z,24.67
2019-05-03T12:41:19.170Z,25.33
2019-05-03T12:43:48.634Z,25.02
2019-05-03T12:46:18.376Z,24.55
2019-05-03T12:48:47.730Z,23.67
2019-05-03T12:51:17.186Z,22.20
2019-05-03T12:53:46.581Z,22.07
2019-05-03T12:56:22.722Z,21.92
2019-05-03T12:59:12.298Z,23.04
2019-05-03T13:02:09.539Z,23.06
2019-05-03T13:04:40.065Z,22.78
2019-05-03T13:07:28.338Z,22.48
2019-05-03T13:09:57.710Z,22.26
2019-05-03T13:12:28.587Z,22.50
2019-05-03T13:14:57.931Z,22.93
2019-05-03T13:17:39.504Z,23.01
2019-05-03T13:20:11.427Z,22.66
2019-05-03T13:22:40.842Z,21.95
2019-05-03T13:25:10.319Z,21.19
2019-05-03T13:27:39.728Z,21.40
2019-05-03T13:30:09.142Z,21.29
2019-05-03T13:32:38.564Z,22.00
2019-05-03T13:35:07.927Z,22.03
2019-05-03T13:37:37.483Z,21.87
2019-05-03T13:40:07.127Z,21.80
2019-05-03T13:42:36.506Z,21.83
2019-05-03T13:45:06.209Z,22.39
2019-05-03T13:47:35.812Z,22.44
2019-05-03T13:50:06.248Z,22.37
2019-05-03T13:52:35.734Z,22.66
2019-05-03T13:55:05.569Z,22.87
2019-05-03T13:57:35.470Z,23.09
2019-05-03T14:00:05.913Z,22.95
2019-05-03T14:02:35.882Z,22.05
2019-05-03T14:05:05.953Z,22.23
2019-05-03T14:07:35.546Z,22.28
2019-05-03T14:10:05.337Z,21.58
2019-05-03T14:12:35.130Z,20.60
2019-05-03T14:15:05.673Z,20.23
2019-05-03T14:17:35.538Z,20.48
2019-05-03T14:20:14.775Z,20.55
2019-05-03T14:22:45.708Z,20.42
2019-05-03T14:25:15.283Z,20.83
2019-05-03T14:27:45.551Z,21.31
2019-05-03T14:30:16.761Z,21.65
2019-05-03T14:32:46.176Z,22.12
2019-05-03T14:35:16.334Z,22.30
2019-05-03T14:37:46.081Z,22.48
2019-05-03T14:40:15.714Z,22.18
2019-05-03T14:42:45.103Z,21.13
2019-05-03T14:45:15.036Z,21.83
2019-05-03T14:47:44.648Z,22.46
2019-05-03T14:50:15.008Z,23.37
2019-05-03T14:52:45.531Z,23.54
2019-05-03T14:55:25.210Z,22.85
2019-05-03T14:58:06.544Z,22.26
2019-05-03T15:00:45.135Z,21.79
2019-05-03T15:03:17.978Z,21.78
2019-05-03T15:05:47.382Z,21.42
2019-05-03T15:08:16.738Z,21.67
2019-05-03T15:10:46.147Z,21.19
2019-05-03T15:13:15.962Z,21.74
2019-05-03T15:15:46.093Z,21.92
2019-05-03T15:18:16.146Z,22.01
2019-05-03T15:20:45.806Z,21.87
2019-05-03T15:23:15.170Z,21.88
2019-05-03T15:25:45.213Z,21.85
2019-05-03T15:30:44.522Z,22.69
2019-05-03T15:33:15.120Z,22.48
2019-05-03T15:35:46.650Z,22.04
2019-05-03T15:38:16.143Z,22.05
2019-05-03T15:40:46.420Z,21.83
2019-05-03T15:43:34.858Z,21.06
2019-05-03T15:46:17.439Z,21.79
2019-05-03T15:48:49.892Z,22.21
2019-05-03T15:51:19.297Z,22.34
2019-05-03T15:53:48.654Z,22.01
2019-05-03T15:56:18.056Z,22.24
2019-05-03T15:58:47.429Z,22.33
2019-05-03T16:01:16.843Z,22.16
2019-05-03T16:03:46.194Z,22.11
2019-05-03T16:06:15.774Z,21.34
2019-05-03T16:08:45.123Z,21.24
2019-05-03T16:11:14.934Z,21.39
2019-05-03T16:13:44.810Z,21.17
2019-05-03T16:16:15.182Z,20.80
2019-05-03T16:18:44.980Z,20.81
2019-05-03T16:21:14.771Z,20.83
2019-05-03T16:23:46.279Z,20.67
2019-05-03T16:26:15.325Z,20.80
2019-05-03T16:28:49.455Z,20.45
2019-05-03T16:31:21.362Z,20.56
2019-05-03T16:33:50.717Z,20.48
2019-05-03T16:36:20.071Z,20.06
2019-05-03T16:38:49.515Z,19.98
2019-05-03T16:41:18.982Z,19.97
2019-05-03T16:43:48.394Z,20.05
2019-05-03T16:46:17.786Z,20.01
2019-05-03T16:48:47.190Z,19.70
2019-05-03T16:51:17.280Z,19.68
2019-05-03T16:53:46.931Z,19.41
2019-05-03T16:56:17.125Z,19.68
2019-05-03T16:58:46.760Z,19.90
2019-05-03T17:01:18.174Z,19.96
2019-05-03T17:03:52.171Z,20.12
2019-05-03T17:06:39.375Z,20.00
2019-05-03T17:09:26.712Z,20.15
2019-05-03T17:12:15.241Z,19.96
2019-05-03T17:14:44.726Z,19.97
2019-05-03T17:17:14.850Z,19.50
2019-05-03T17:19:44.831Z,19.53
2019-05-03T17:22:17.099Z,19.50
2019-05-03T17:24:45.525Z,19.09
2019-05-03T17:27:14.940Z,19.39
2019-05-03T17:29:44.589Z,19.45
2019-05-03T17:32:15.320Z,19.26
2019-05-03T17:34:45.494Z,19.35
2019-05-03T17:37:14.839Z,19.27
2019-05-03T17:40:08.964Z,18.94
2019-05-03T17:42:56.348Z,18.83
2019-05-03T17:45:31.351Z,18.95
2019-05-03T17:48:00.746Z,18.84
2019-05-03T17:50:30.158Z,18.80
2019-05-03T17:53:10.428Z,18.80
2019-05-03T17:56:16.848Z,18.70
2019-05-03T17:58:52.439Z,18.70
2019-05-03T18:01:40.668Z,18.54
2019-05-03T18:04:20.590Z,18.20
2019-05-03T18:07:04.579Z,18.22
2019-05-03T18:09:35.694Z,18.33
2019-05-03T18:12:05.564Z,18.27
2019-05-03T18:14:34.963Z,18.41
2019-05-03T18:17:05.714Z,18.44
2019-05-03T18:19:35.437Z,18.32
2019-05-03T18:22:05.328Z,18.38
2019-05-03T18:24:35.951Z,18.12
2019-05-03T18:27:05.487Z,18.17
2019-05-03T18:29:34.993Z,18.03
2019-05-03T18:32:05.496Z,17.99
2019-05-03T18:34:35.275Z,18.05
2019-05-03T18:37:04.945Z,18.07
2019-05-03T18:39:34.804Z,17.81
2019-05-03T18:42:06.421Z,17.67
2019-05-03T18:44:57.076Z,17.62
2019-05-03T18:47:27.407Z,17.62
2019-05-03T18:49:56.960Z,17.65
2019-05-03T18:52:26.538Z,17.63
2019-05-03T18:54:57.112Z,17.45
2019-05-03T18:57:26.759Z,17.41
2019-05-03T18:59:56.431Z,17.49
2019-05-03T19:02:26.071Z,17.42
2019-05-03T19:04:56.383Z,17.34
2019-05-03T19:07:45.286Z,17.09
2019-05-03T19:10:35.685Z,17.05
2019-05-03T19:13:27.067Z,17.01
2019-05-03T19:15:56.805Z,16.97
2019-05-03T19:18:28.579Z,16.95
2019-05-03T19:20:58.217Z,16.90
2019-05-03T19:23:27.857Z,16.95
2019-05-03T19:25:57.407Z,17.02
2019-05-03T19:28:26.995Z,17.01
2019-05-03T19:30:56.646Z,16.98
2019-05-03T19:33:27.729Z,17.07
2019-05-03T19:36:00.188Z,17.04
2019-05-03T19:38:28.686Z,16.99
2019-05-03T19:40:58.334Z,16.98
2019-05-03T19:43:27.927Z,16.76
2019-05-03T19:45:57.799Z,16.72
2019-05-03T19:48:27.441Z,16.72
2019-05-03T19:50:57.305Z,16.60
2019-05-03T19:53:48.955Z,16.63
2019-05-03T19:56:19.892Z,16.68
2019-05-03T19:58:50.022Z,16.62
2019-05-03T20:01:41.737Z,16.60
2019-05-03T20:04:42.885Z,16.36
2019-05-03T20:07:34.755Z,16.34
2019-05-03T20:10:05.254Z,16.13
2019-05-03T20:12:35.614Z,15.97
2019-05-03T20:15:05.532Z,15.82
2019-05-03T20:17:35.150Z,15.93
2019-05-03T20:20:05.225Z,15.81
2019-05-03T20:22:35.185Z,15.73
2019-05-03T20:25:04.963Z,15.85
2019-05-03T20:27:35.262Z,15.84
2019-05-03T20:30:05.849Z,15.74
2019-05-03T20:32:35.586Z,15.84
2019-05-03T20:35:16.649Z,15.79
2019-05-03T20:37:37.042Z,15.39
2019-05-03T20:40:06.602Z,15.48
2019-05-03T20:42:55.642Z,15.47
2019-05-03T20:45:30.739Z,15.56
2019-05-03T20:48:00.362Z,15.46
2019-05-03T20:50:30.023Z,15.51
2019-05-03T20:52:59.679Z,15.20
2019-05-03T20:55:29.443Z,15.35
2019-05-03T20:57:58.927Z,15.36
2019-05-03T21:00:28.549Z,15.23
2019-05-03T21:02:58.182Z,15.53
2019-05-03T21:05:31.807Z,15.50
2019-05-03T21:07:59.194Z,15.56
2019-05-03T21:10:28.834Z,15.58
2019-05-03T21:12:58.486Z,15.57
2019-05-03T21:15:37.409Z,15.66
2019-05-03T21:18:17.692Z,15.74
2019-05-03T21:20:55.456Z,15.73
2019-05-03T21:23:25.976Z,15.69
2019-05-03T21:26:13.026Z,15.59
2019-05-03T21:28:58.769Z,15.60
2019-05-03T21:31:28.149Z,15.59
2019-05-03T21:33:57.782Z,15.61
2019-05-03T21:36:27.370Z,15.64
2019-05-03T21:38:56.774Z,15.62
2019-05-03T21:41:26.260Z,15.61
2019-05-03T21:43:55.937Z,15.65
2019-05-03T21:46:34.861Z,15.68
2019-05-03T21:49:18.415Z,15.68
2019-05-03T21:51:47.826Z,15.47
2019-05-03T21:54:17.229Z,14.89
2019-05-03T21:56:46.596Z,14.28
2019-05-03T21:59:15.993Z,14.71
2019-05-03T22:01:47.890Z,14.92
2019-05-03T22:04:17.597Z,15.00
2019-05-03T22:06:46.939Z,15.11
2019-05-03T22:09:16.348Z,15.20
2019-05-03T22:11:45.700Z,15.33
2019-05-03T22:14:24.559Z,15.40
2019-05-03T22:17:14.902Z,15.41
2019-05-03T22:19:46.171Z,15.40
2019-05-03T22:22:34.175Z,15.28
2019-05-03T22:25:04.827Z,15.24
2019-05-03T22:27:40.026Z,15.20
2019-05-03T22:30:09.452Z,14.98
2019-05-03T22:32:39.029Z,14.97
2019-05-03T22:35:08.978Z,14.90
2019-05-03T22:37:38.727Z,14.92
2019-05-03T22:40:08.131Z,14.95
2019-05-03T22:42:37.514Z,14.90
2019-05-03T22:45:07.049Z,14.90
2019-05-03T22:47:36.727Z,14.83
2019-05-03T22:50:06.290Z,14.79
2019-05-03T22:52:35.708Z,14.90
2019-05-03T22:55:05.736Z,14.78
2019-05-03T22:57:35.303Z,14.77
2019-05-03T23:00:06.259Z,14.82
2019-05-03T23:02:35.815Z,14.88
2019-05-03T23:05:05.262Z,14.96
2019-05-03T23:07:37.289Z,14.80
2019-05-03T23:10:06.587Z,14.81
2019-05-03T23:12:35.940Z,14.91
2019-05-03T23:15:06.800Z,14.98
2019-05-03T23:17:36.225Z,15.05
2019-05-03T23:20:11.364Z,15.00
2019-05-03T23:22:40.733Z,14.96
2019-05-03T23:25:10.143Z,14.82
2019-05-03T23:27:39.548Z,14.82
2019-05-03T23:30:08.963Z,14.87
2019-05-03T23:32:38.390Z,14.88
2019-05-03T23:35:07.835Z,14.87
2019-05-03T23:37:37.401Z,14.92
2019-05-03T23:40:07.444Z,14.96
2019-05-03T23:42:37.071Z,14.97
2019-05-03T23:45:06.550Z,14.89
2019-05-03T23:47:45.261Z,14.83
2019-05-03T23:50:19.777Z,14.77
2019-05-03T23:52:49.177Z,14.75
2019-05-03T23:55:34.663Z,14.79
2019-05-03T23:58:04.837Z,14.79
